sensor_id;sensor_type;location;lat;lon;timestamp;P1;durP1;ratioP1;P2;durP2;ratioP2
5493;SDS011;2769;49.864;8.656;2023-12-20T00:00:57;8.37;;;6.47;;
5493;SDS011;2769;49.864;8.656;2023-12-20T00:03:43;7.00;;;5.80;;
5493;SDS011;2769;49.864;8.656;2023-12-20T00:06:30;9.10;;;6.33;;
5493;SDS011;2769;49.864;8.656;2023-12-20T00:09:17;6.70;;;5.60;;
5493;SDS011;2769;49.864;8.656;2023-12-20T00:12:05;8.97;;;5.90;;
5493;SDS011;2769;49.864;8.656;2023-12-20T00:14:51;8.60;;;6.50;;
5493;SDS011;2769;49.864;8.656;2023-12-20T00:17:37;5.97;;;5.10;;
5493;SDS011;2769;49.864;8.656;2023-12-20T00:20:24;7.93;;;6.50;;
5493;SDS011;2769;49.864;8.656;2023-12-20T00:23:10;5.47;;;4.70;;
5493;SDS011;2769;49.864;8.656;2023-12-20T00:25:56;5.90;;;5.30;;
5493;SDS011;2769;49.864;8.656;2023-12-20T00:28:44;9.53;;;5.70;;
5493;SDS011;2769;49.864;8.656;2023-12-20T00:31:30;6.30;;;5.70;;
5493;SDS011;2769;49.864;8.656;2023-12-20T00:34:17;6.00;;;5.40;;
5493;SDS011;2769;49.864;8.656;2023-12-20T00:37:04;5.40;;;4.90;;
5493;SDS011;2769;49.864;8.656;2023-12-20T00:39:51;8.70;;;5.80;;
5493;SDS011;2769;49.864;8.656;2023-12-20T00:42:38;6.47;;;5.20;;
5493;SDS011;2769;49.864;8.656;2023-12-20T00:45:30;7.07;;;5.50;;
5493;SDS011;2769;49.864;8.656;2023-12-20T00:48:16;5.30;;;4.90;;
5493;SDS011;2769;49.864;8.656;2023-12-20T00:51:03;5.80;;;4.70;;
5493;SDS011;2769;49.864;8.656;2023-12-20T00:53:49;5.83;;;5.20;;
5493;SDS011;2769;49.864;8.656;2023-12-20T00:56:40;6.40;;;4.53;;
5493;SDS011;2769;49.864;8.656;2023-12-20T00:59:26;5.60;;;4.97;;
5493;SDS011;2769;49.864;8.656;2023-12-20T01:02:14;5.13;;;4.73;;
5493;SDS011;2769;49.864;8.656;2023-12-20T01:05:00;6.87;;;4.63;;
5493;SDS011;2769;49.864;8.656;2023-12-20T01:07:48;4.87;;;4.47;;
5493;SDS011;2769;49.864;8.656;2023-12-20T01:10:34;4.77;;;4.37;;
5493;SDS011;2769;49.864;8.656;2023-12-20T01:13:20;4.37;;;4.03;;
5493;SDS011;2769;49.864;8.656;2023-12-20T01:16:08;4.67;;;4.27;;
5493;SDS011;2769;49.864;8.656;2023-12-20T01:18:57;5.10;;;4.37;;
5493;SDS011;2769;49.864;8.656;2023-12-20T01:21:44;4.87;;;4.47;;
5493;SDS011;2769;49.864;8.656;2023-12-20T01:24:30;6.00;;;5.20;;
5493;SDS011;2769;49.864;8.656;2023-12-20T01:27:17;6.80;;;4.73;;
5493;SDS011;2769;49.864;8.656;2023-12-20T01:30:04;6.20;;;4.80;;
5493;SDS011;2769;49.864;8.656;2023-12-20T01:32:52;5.40;;;4.83;;
5493;SDS011;2769;49.864;8.656;2023-12-20T01:35:40;4.77;;;4.37;;
5493;SDS011;2769;49.864;8.656;2023-12-20T01:38:27;5.00;;;4.50;;
5493;SDS011;2769;49.864;8.656;2023-12-20T01:41:13;7.30;;;4.30;;
5493;SDS011;2769;49.864;8.656;2023-12-20T01:44:00;4.83;;;4.43;;
5493;SDS011;2769;49.864;8.656;2023-12-20T01:46:46;7.03;;;4.80;;
5493;SDS011;2769;49.864;8.656;2023-12-20T01:49:33;5.37;;;4.73;;
5493;SDS011;2769;49.864;8.656;2023-12-20T01:52:22;4.13;;;3.83;;
5493;SDS011;2769;49.864;8.656;2023-12-20T01:55:09;5.00;;;4.40;;
5493;SDS011;2769;49.864;8.656;2023-12-20T01:57:58;4.20;;;3.90;;
5493;SDS011;2769;49.864;8.656;2023-12-20T02:00:46;4.33;;;4.00;;
5493;SDS011;2769;49.864;8.656;2023-12-20T02:03:32;5.20;;;4.70;;
5493;SDS011;2769;49.864;8.656;2023-12-20T02:06:21;4.40;;;4.00;;
5493;SDS011;2769;49.864;8.656;2023-12-20T02:09:11;5.60;;;4.13;;
5493;SDS011;2769;49.864;8.656;2023-12-20T02:11:57;4.63;;;4.23;;
5493;SDS011;2769;49.864;8.656;2023-12-20T02:14:44;2.70;;;2.50;;
5493;SDS011;2769;49.864;8.656;2023-12-20T02:17:30;4.20;;;3.90;;
5493;SDS011;2769;49.864;8.656;2023-12-20T02:20:18;4.00;;;3.80;;
5493;SDS011;2769;49.864;8.656;2023-12-20T02:23:05;5.13;;;3.83;;
5493;SDS011;2769;49.864;8.656;2023-12-20T02:25:52;4.17;;;3.80;;
5493;SDS011;2769;49.864;8.656;2023-12-20T02:28:38;3.70;;;3.50;;
5493;SDS011;2769;49.864;8.656;2023-12-20T02:31:25;4.00;;;3.70;;
5493;SDS011;2769;49.864;8.656;2023-12-20T02:34:11;5.00;;;3.47;;
5493;SDS011;2769;49.864;8.656;2023-12-20T02:36:58;3.30;;;3.10;;
5493;SDS011;2769;49.864;8.656;2023-12-20T02:39:46;2.87;;;2.67;;
5493;SDS011;2769;49.864;8.656;2023-12-20T02:42:33;3.30;;;3.10;;
5493;SDS011;2769;49.864;8.656;2023-12-20T02:45:19;2.97;;;2.83;;
5493;SDS011;2769;49.864;8.656;2023-12-20T02:48:05;2.97;;;2.87;;
5493;SDS011;2769;49.864;8.656;2023-12-20T02:50:53;3.10;;;2.90;;
5493;SDS011;2769;49.864;8.656;2023-12-20T02:53:39;3.27;;;2.97;;
5493;SDS011;2769;49.864;8.656;2023-12-20T02:56:27;3.60;;;3.30;;
5493;SDS011;2769;49.864;8.656;2023-12-20T02:59:13;3.07;;;2.87;;
5493;SDS011;2769;49.864;8.656;2023-12-20T03:01:59;3.20;;;3.00;;
5493;SDS011;2769;49.864;8.656;2023-12-20T03:04:46;3.70;;;3.50;;
5493;SDS011;2769;49.864;8.656;2023-12-20T03:07:33;2.97;;;2.83;;
5493;SDS011;2769;49.864;8.656;2023-12-20T03:10:19;3.43;;;3.20;;
5493;SDS011;2769;49.864;8.656;2023-12-20T03:13:13;5.83;;;3.60;;
5493;SDS011;2769;49.864;8.656;2023-12-20T03:15:59;3.43;;;3.03;;
5493;SDS011;2769;49.864;8.656;2023-12-20T03:18:46;4.30;;;3.90;;
5493;SDS011;2769;49.864;8.656;2023-12-20T03:21:33;4.10;;;3.60;;
5493;SDS011;2769;49.864;8.656;2023-12-20T03:24:20;5.03;;;4.53;;
5493;SDS011;2769;49.864;8.656;2023-12-20T03:27:06;5.03;;;4.33;;
5493;SDS011;2769;49.864;8.656;2023-12-20T03:29:53;4.20;;;3.80;;
5493;SDS011;2769;49.864;8.656;2023-12-20T03:32:40;7.00;;;4.10;;
5493;SDS011;2769;49.864;8.656;2023-12-20T03:35:26;5.03;;;4.60;;
5493;SDS011;2769;49.864;8.656;2023-12-20T03:38:13;5.37;;;4.87;;
5493;SDS011;2769;49.864;8.656;2023-12-20T03:40:59;5.57;;;5.03;;
5493;SDS011;2769;49.864;8.656;2023-12-20T03:43:46;5.43;;;4.93;;
5493;SDS011;2769;49.864;8.656;2023-12-20T03:46:33;5.30;;;4.80;;
5493;SDS011;2769;49.864;8.656;2023-12-20T03:49:20;5.40;;;4.70;;
5493;SDS011;2769;49.864;8.656;2023-12-20T03:52:07;4.37;;;3.97;;
5493;SDS011;2769;49.864;8.656;2023-12-20T03:54:53;4.73;;;4.30;;
5493;SDS011;2769;49.864;8.656;2023-12-20T03:57:40;6.70;;;4.30;;
5493;SDS011;2769;49.864;8.656;2023-12-20T04:00:27;8.77;;;4.87;;
5493;SDS011;2769;49.864;8.656;2023-12-20T04:03:15;9.33;;;4.30;;
5493;SDS011;2769;49.864;8.656;2023-12-20T04:06:01;5.13;;;4.50;;
5493;SDS011;2769;49.864;8.656;2023-12-20T04:08:48;5.23;;;4.73;;
5493;SDS011;2769;49.864;8.656;2023-12-20T04:11:34;8.83;;;5.20;;
5493;SDS011;2769;49.864;8.656;2023-12-20T04:14:21;5.03;;;4.47;;
5493;SDS011;2769;49.864;8.656;2023-12-20T04:17:08;5.63;;;5.07;;
5493;SDS011;2769;49.864;8.656;2023-12-20T04:19:56;5.60;;;5.10;;
5493;SDS011;2769;49.864;8.656;2023-12-20T04:22:43;5.03;;;4.50;;
5493;SDS011;2769;49.864;8.656;2023-12-20T04:25:29;6.70;;;5.17;;
5493;SDS011;2769;49.864;8.656;2023-12-20T04:28:15;5.00;;;4.60;;
5493;SDS011;2769;49.864;8.656;2023-12-20T04:31:02;6.03;;;4.93;;
5493;SDS011;2769;49.864;8.656;2023-12-20T04:33:49;6.10;;;4.93;;
5493;SDS011;2769;49.864;8.656;2023-12-20T04:36:36;5.77;;;4.53;;
5493;SDS011;2769;49.864;8.656;2023-12-20T04:39:23;7.63;;;5.50;;
5493;SDS011;2769;49.864;8.656;2023-12-20T04:42:09;7.40;;;5.30;;
5493;SDS011;2769;49.864;8.656;2023-12-20T04:44:56;6.13;;;5.53;;
5493;SDS011;2769;49.864;8.656;2023-12-20T04:47:42;6.77;;;5.67;;
5493;SDS011;2769;49.864;8.656;2023-12-20T04:50:29;5.70;;;5.10;;
5493;SDS011;2769;49.864;8.656;2023-12-20T04:53:17;5.10;;;4.63;;
5493;SDS011;2769;49.864;8.656;2023-12-20T04:56:03;5.40;;;4.90;;
5493;SDS011;2769;49.864;8.656;2023-12-20T04:58:50;6.50;;;5.53;;
5493;SDS011;2769;49.864;8.656;2023-12-20T05:01:37;5.80;;;5.00;;
5493;SDS011;2769;49.864;8.656;2023-12-20T05:04:23;5.60;;;5.10;;
5493;SDS011;2769;49.864;8.656;2023-12-20T05:07:10;5.73;;;5.20;;
5493;SDS011;2769;49.864;8.656;2023-12-20T05:09:58;3.90;;;3.60;;
5493;SDS011;2769;49.864;8.656;2023-12-20T05:12:45;5.10;;;4.60;;
5493;SDS011;2769;49.864;8.656;2023-12-20T05:15:32;8.90;;;4.33;;
5493;SDS011;2769;49.864;8.656;2023-12-20T05:18:18;4.37;;;3.97;;
5493;SDS011;2769;49.864;8.656;2023-12-20T05:21:06;4.20;;;3.97;;
5493;SDS011;2769;49.864;8.656;2023-12-20T05:23:53;4.20;;;3.80;;
5493;SDS011;2769;49.864;8.656;2023-12-20T05:26:40;4.30;;;4.00;;
5493;SDS011;2769;49.864;8.656;2023-12-20T05:29:27;5.37;;;4.87;;
5493;SDS011;2769;49.864;8.656;2023-12-20T05:32:13;5.17;;;4.67;;
5493;SDS011;2769;49.864;8.656;2023-12-20T05:35:00;4.90;;;4.40;;
5493;SDS011;2769;49.864;8.656;2023-12-20T05:37:46;5.43;;;4.17;;
5493;SDS011;2769;49.864;8.656;2023-12-20T05:40:33;4.53;;;4.23;;
5493;SDS011;2769;49.864;8.656;2023-12-20T05:43:21;4.63;;;4.00;;
5493;SDS011;2769;49.864;8.656;2023-12-20T05:46:09;4.70;;;4.23;;
5493;SDS011;2769;49.864;8.656;2023-12-20T05:48:56;4.00;;;3.70;;
5493;SDS011;2769;49.864;8.656;2023-12-20T05:51:43;3.63;;;3.43;;
5493;SDS011;2769;49.864;8.656;2023-12-20T05:54:30;3.50;;;3.30;;
5493;SDS011;2769;49.864;8.656;2023-12-20T05:57:17;2.90;;;2.53;;
5493;SDS011;2769;49.864;8.656;2023-12-20T06:00:05;3.23;;;2.97;;
5493;SDS011;2769;49.864;8.656;2023-12-20T06:02:59;3.20;;;3.00;;
5493;SDS011;2769;49.864;8.656;2023-12-20T06:05:45;3.57;;;3.17;;
5493;SDS011;2769;49.864;8.656;2023-12-20T06:08:33;6.10;;;3.37;;
5493;SDS011;2769;49.864;8.656;2023-12-20T06:11:20;3.50;;;3.10;;
5493;SDS011;2769;49.864;8.656;2023-12-20T06:14:06;3.47;;;3.17;;
5493;SDS011;2769;49.864;8.656;2023-12-20T06:16:54;2.90;;;2.80;;
5493;SDS011;2769;49.864;8.656;2023-12-20T06:19:40;2.90;;;2.73;;
5493;SDS011;2769;49.864;8.656;2023-12-20T06:22:30;5.63;;;2.60;;
5493;SDS011;2769;49.864;8.656;2023-12-20T06:25:17;5.50;;;3.00;;
5493;SDS011;2769;49.864;8.656;2023-12-20T06:28:04;3.80;;;3.07;;
5493;SDS011;2769;49.864;8.656;2023-12-20T06:30:51;4.77;;;3.67;;
5493;SDS011;2769;49.864;8.656;2023-12-20T06:33:42;2.90;;;2.70;;
5493;SDS011;2769;49.864;8.656;2023-12-20T06:36:29;3.37;;;3.10;;
5493;SDS011;2769;49.864;8.656;2023-12-20T06:39:15;3.30;;;3.10;;
5493;SDS011;2769;49.864;8.656;2023-12-20T06:42:02;4.50;;;2.93;;
5493;SDS011;2769;49.864;8.656;2023-12-20T06:44:49;3.47;;;3.27;;
5493;SDS011;2769;49.864;8.656;2023-12-20T06:47:35;4.00;;;3.17;;
5493;SDS011;2769;49.864;8.656;2023-12-20T06:50:23;4.43;;;2.80;;
5493;SDS011;2769;49.864;8.656;2023-12-20T06:53:10;5.40;;;3.73;;
5493;SDS011;2769;49.864;8.656;2023-12-20T06:55:57;8.93;;;3.60;;
5493;SDS011;2769;49.864;8.656;2023-12-20T06:58:43;3.70;;;3.40;;
5493;SDS011;2769;49.864;8.656;2023-12-20T07:01:30;3.93;;;3.60;;
5493;SDS011;2769;49.864;8.656;2023-12-20T07:04:17;4.07;;;3.03;;
5493;SDS011;2769;49.864;8.656;2023-12-20T07:07:08;5.43;;;3.30;;
5493;SDS011;2769;49.864;8.656;2023-12-20T07:09:55;6.77;;;3.30;;
5493;SDS011;2769;49.864;8.656;2023-12-20T07:12:41;6.03;;;4.00;;
5493;SDS011;2769;49.864;8.656;2023-12-20T07:15:29;6.90;;;4.97;;
5493;SDS011;2769;49.864;8.656;2023-12-20T07:18:15;4.70;;;4.10;;
5493;SDS011;2769;49.864;8.656;2023-12-20T07:21:01;6.23;;;4.63;;
5493;SDS011;2769;49.864;8.656;2023-12-20T07:23:50;6.70;;;4.50;;
5493;SDS011;2769;49.864;8.656;2023-12-20T07:26:36;4.70;;;4.30;;
5493;SDS011;2769;49.864;8.656;2023-12-20T07:29:24;6.83;;;4.37;;
5493;SDS011;2769;49.864;8.656;2023-12-20T07:32:11;9.70;;;4.17;;
5493;SDS011;2769;49.864;8.656;2023-12-20T07:34:57;5.30;;;4.03;;
5493;SDS011;2769;49.864;8.656;2023-12-20T07:37:44;5.37;;;3.57;;
5493;SDS011;2769;49.864;8.656;2023-12-20T07:40:32;13.00;;;4.70;;
5493;SDS011;2769;49.864;8.656;2023-12-20T07:43:18;5.70;;;5.17;;
5493;SDS011;2769;49.864;8.656;2023-12-20T07:46:06;16.03;;;4.57;;
5493;SDS011;2769;49.864;8.656;2023-12-20T07:48:52;4.63;;;4.07;;
5493;SDS011;2769;49.864;8.656;2023-12-20T07:51:39;11.07;;;4.37;;
5493;SDS011;2769;49.864;8.656;2023-12-20T07:54:26;4.70;;;4.20;;
5493;SDS011;2769;49.864;8.656;2023-12-20T07:57:13;6.67;;;4.57;;
5493;SDS011;2769;49.864;8.656;2023-12-20T08:00:00;18.73;;;11.63;;
5493;SDS011;2769;49.864;8.656;2023-12-20T08:02:48;14.23;;;4.17;;
5493;SDS011;2769;49.864;8.656;2023-12-20T08:05:34;6.27;;;3.93;;
5493;SDS011;2769;49.864;8.656;2023-12-20T08:08:20;7.57;;;4.70;;
5493;SDS011;2769;49.864;8.656;2023-12-20T08:11:06;7.67;;;4.40;;
5493;SDS011;2769;49.864;8.656;2023-12-20T08:13:54;5.57;;;3.83;;
5493;SDS011;2769;49.864;8.656;2023-12-20T08:16:40;6.40;;;4.03;;
5493;SDS011;2769;49.864;8.656;2023-12-20T08:19:27;6.03;;;4.03;;
5493;SDS011;2769;49.864;8.656;2023-12-20T08:22:14;7.73;;;4.43;;
5493;SDS011;2769;49.864;8.656;2023-12-20T08:25:02;7.53;;;4.10;;
5493;SDS011;2769;49.864;8.656;2023-12-20T08:27:49;8.00;;;4.20;;
5493;SDS011;2769;49.864;8.656;2023-12-20T08:30:36;8.27;;;3.47;;
5493;SDS011;2769;49.864;8.656;2023-12-20T08:33:23;10.03;;;3.20;;
5493;SDS011;2769;49.864;8.656;2023-12-20T08:36:10;8.83;;;3.73;;
5493;SDS011;2769;49.864;8.656;2023-12-20T08:38:56;6.20;;;3.87;;
5493;SDS011;2769;49.864;8.656;2023-12-20T08:41:45;4.80;;;3.43;;
5493;SDS011;2769;49.864;8.656;2023-12-20T08:44:32;9.63;;;3.80;;
5493;SDS011;2769;49.864;8.656;2023-12-20T08:47:19;6.80;;;3.73;;
5493;SDS011;2769;49.864;8.656;2023-12-20T08:50:07;4.93;;;3.30;;
5493;SDS011;2769;49.864;8.656;2023-12-20T08:52:54;4.10;;;3.70;;
5493;SDS011;2769;49.864;8.656;2023-12-20T08:55:40;4.30;;;3.70;;
5493;SDS011;2769;49.864;8.656;2023-12-20T08:58:26;6.20;;;4.30;;
5493;SDS011;2769;49.864;8.656;2023-12-20T09:01:13;5.03;;;4.53;;
5493;SDS011;2769;49.864;8.656;2023-12-20T09:04:01;6.80;;;3.50;;
5493;SDS011;2769;49.864;8.656;2023-12-20T09:06:48;3.83;;;3.10;;
5493;SDS011;2769;49.864;8.656;2023-12-20T09:09:35;6.33;;;2.97;;
5493;SDS011;2769;49.864;8.656;2023-12-20T09:12:21;3.73;;;2.80;;
5493;SDS011;2769;49.864;8.656;2023-12-20T09:15:08;12.10;;;4.17;;
5493;SDS011;2769;49.864;8.656;2023-12-20T09:17:54;4.10;;;2.50;;
5493;SDS011;2769;49.864;8.656;2023-12-20T09:20:43;4.07;;;3.17;;
5493;SDS011;2769;49.864;8.656;2023-12-20T09:23:31;5.03;;;2.67;;
5493;SDS011;2769;49.864;8.656;2023-12-20T09:26:18;4.77;;;3.00;;
5493;SDS011;2769;49.864;8.656;2023-12-20T09:29:04;4.50;;;3.20;;
5493;SDS011;2769;49.864;8.656;2023-12-20T09:31:52;5.23;;;3.50;;
5493;SDS011;2769;49.864;8.656;2023-12-20T09:34:39;3.80;;;3.10;;
5493;SDS011;2769;49.864;8.656;2023-12-20T09:37:28;6.23;;;3.03;;
5493;SDS011;2769;49.864;8.656;2023-12-20T09:40:16;9.63;;;3.83;;
5493;SDS011;2769;49.864;8.656;2023-12-20T09:43:05;3.90;;;3.20;;
5493;SDS011;2769;49.864;8.656;2023-12-20T09:45:55;3.67;;;3.37;;
5493;SDS011;2769;49.864;8.656;2023-12-20T09:48:44;4.53;;;3.37;;
5493;SDS011;2769;49.864;8.656;2023-12-20T09:51:31;3.50;;;3.20;;
5493;SDS011;2769;49.864;8.656;2023-12-20T09:54:20;8.10;;;3.60;;
5493;SDS011;2769;49.864;8.656;2023-12-20T09:57:07;3.53;;;3.00;;
5493;SDS011;2769;49.864;8.656;2023-12-20T09:59:55;5.13;;;3.60;;
5493;SDS011;2769;49.864;8.656;2023-12-20T10:02:42;14.03;;;3.23;;
5493;SDS011;2769;49.864;8.656;2023-12-20T10:05:32;5.97;;;3.93;;
5493;SDS011;2769;49.864;8.656;2023-12-20T10:08:20;7.57;;;3.73;;
5493;SDS011;2769;49.864;8.656;2023-12-20T10:11:09;6.80;;;4.03;;
5493;SDS011;2769;49.864;8.656;2023-12-20T10:13:58;5.47;;;3.27;;
5493;SDS011;2769;49.864;8.656;2023-12-20T10:16:45;5.17;;;3.40;;
5493;SDS011;2769;49.864;8.656;2023-12-20T10:19:32;6.20;;;3.40;;
5493;SDS011;2769;49.864;8.656;2023-12-20T10:22:18;7.50;;;3.53;;
5493;SDS011;2769;49.864;8.656;2023-12-20T10:25:06;5.37;;;3.33;;
5493;SDS011;2769;49.864;8.656;2023-12-20T10:30:58;4.83;;;2.47;;
5493;SDS011;2769;49.864;8.656;2023-12-20T10:33:44;6.40;;;3.20;;
5493;SDS011;2769;49.864;8.656;2023-12-20T10:36:32;8.73;;;2.60;;
5493;SDS011;2769;49.864;8.656;2023-12-20T10:39:19;5.00;;;2.40;;
5493;SDS011;2769;49.864;8.656;2023-12-20T10:42:06;7.70;;;2.50;;
5493;SDS011;2769;49.864;8.656;2023-12-20T10:44:55;5.63;;;2.20;;
5493;SDS011;2769;49.864;8.656;2023-12-20T10:47:41;8.10;;;1.90;;
5493;SDS011;2769;49.864;8.656;2023-12-20T10:50:28;4.43;;;2.13;;
5493;SDS011;2769;49.864;8.656;2023-12-20T10:53:16;4.10;;;2.40;;
5493;SDS011;2769;49.864;8.656;2023-12-20T10:56:03;5.33;;;2.47;;
5493;SDS011;2769;49.864;8.656;2023-12-20T10:58:50;4.43;;;2.60;;
5493;SDS011;2769;49.864;8.656;2023-12-20T11:01:39;6.13;;;2.53;;
5493;SDS011;2769;49.864;8.656;2023-12-20T11:04:28;7.80;;;2.80;;
5493;SDS011;2769;49.864;8.656;2023-12-20T11:07:21;4.57;;;2.43;;
5493;SDS011;2769;49.864;8.656;2023-12-20T11:10:16;4.37;;;2.03;;
5493;SDS011;2769;49.864;8.656;2023-12-20T11:13:06;3.03;;;2.17;;
5493;SDS011;2769;49.864;8.656;2023-12-20T11:15:58;3.53;;;2.17;;
5493;SDS011;2769;49.864;8.656;2023-12-20T11:18:46;6.27;;;2.27;;
5493;SDS011;2769;49.864;8.656;2023-12-20T11:21:33;7.77;;;2.37;;
5493;SDS011;2769;49.864;8.656;2023-12-20T11:24:21;3.77;;;1.90;;
5493;SDS011;2769;49.864;8.656;2023-12-20T11:27:08;3.47;;;1.80;;
5493;SDS011;2769;49.864;8.656;2023-12-20T11:29:56;8.60;;;2.33;;
5493;SDS011;2769;49.864;8.656;2023-12-20T11:32:42;5.53;;;2.23;;
5493;SDS011;2769;49.864;8.656;2023-12-20T11:35:31;4.73;;;2.70;;
5493;SDS011;2769;49.864;8.656;2023-12-20T11:38:19;4.50;;;2.57;;
5493;SDS011;2769;49.864;8.656;2023-12-20T11:41:06;10.63;;;2.60;;
5493;SDS011;2769;49.864;8.656;2023-12-20T11:43:55;4.33;;;2.23;;
5493;SDS011;2769;49.864;8.656;2023-12-20T11:46:42;4.03;;;2.80;;
5493;SDS011;2769;49.864;8.656;2023-12-20T11:49:28;9.30;;;2.20;;
5493;SDS011;2769;49.864;8.656;2023-12-20T11:52:17;4.67;;;2.93;;
5493;SDS011;2769;49.864;8.656;2023-12-20T11:55:04;8.20;;;3.13;;
5493;SDS011;2769;49.864;8.656;2023-12-20T11:57:51;8.60;;;2.40;;
5493;SDS011;2769;49.864;8.656;2023-12-20T12:00:39;8.43;;;3.23;;
5493;SDS011;2769;49.864;8.656;2023-12-20T12:03:25;8.80;;;3.00;;
5493;SDS011;2769;49.864;8.656;2023-12-20T12:06:12;8.53;;;2.80;;
5493;SDS011;2769;49.864;8.656;2023-12-20T12:09:00;10.73;;;3.10;;
5493;SDS011;2769;49.864;8.656;2023-12-20T12:11:49;5.07;;;2.70;;
5493;SDS011;2769;49.864;8.656;2023-12-20T12:14:35;8.53;;;2.93;;
5493;SDS011;2769;49.864;8.656;2023-12-20T12:17:22;8.30;;;3.00;;
5493;SDS011;2769;49.864;8.656;2023-12-20T12:20:09;5.97;;;3.00;;
5493;SDS011;2769;49.864;8.656;2023-12-20T12:22:57;4.57;;;2.83;;
5493;SDS011;2769;49.864;8.656;2023-12-20T12:25:44;4.23;;;2.97;;
5493;SDS011;2769;49.864;8.656;2023-12-20T12:28:31;6.40;;;2.70;;
5493;SDS011;2769;49.864;8.656;2023-12-20T12:31:18;5.40;;;3.33;;
5493;SDS011;2769;49.864;8.656;2023-12-20T12:34:05;5.60;;;3.00;;
5493;SDS011;2769;49.864;8.656;2023-12-20T12:36:55;5.07;;;3.10;;
5493;SDS011;2769;49.864;8.656;2023-12-20T12:39:42;5.40;;;2.93;;
5493;SDS011;2769;49.864;8.656;2023-12-20T12:42:28;12.57;;;4.13;;
5493;SDS011;2769;49.864;8.656;2023-12-20T12:45:15;5.90;;;2.53;;
5493;SDS011;2769;49.864;8.656;2023-12-20T12:48:02;4.03;;;2.83;;
5493;SDS011;2769;49.864;8.656;2023-12-20T12:50:49;7.80;;;3.40;;
5493;SDS011;2769;49.864;8.656;2023-12-20T12:53:38;5.70;;;3.30;;
5493;SDS011;2769;49.864;8.656;2023-12-20T12:56:25;10.30;;;3.10;;
5493;SDS011;2769;49.864;8.656;2023-12-20T12:59:12;9.10;;;3.23;;
5493;SDS011;2769;49.864;8.656;2023-12-20T13:01:58;9.60;;;2.80;;
5493;SDS011;2769;49.864;8.656;2023-12-20T13:04:45;6.67;;;3.23;;
5493;SDS011;2769;49.864;8.656;2023-12-20T13:07:31;6.13;;;3.07;;
5493;SDS011;2769;49.864;8.656;2023-12-20T13:10:20;7.13;;;2.77;;
5493;SDS011;2769;49.864;8.656;2023-12-20T13:13:06;6.70;;;2.70;;
5493;SDS011;2769;49.864;8.656;2023-12-20T13:15:53;6.60;;;3.27;;
5493;SDS011;2769;49.864;8.656;2023-12-20T13:18:40;10.10;;;4.20;;
5493;SDS011;2769;49.864;8.656;2023-12-20T13:21:28;11.50;;;3.63;;
5493;SDS011;2769;49.864;8.656;2023-12-20T13:24:15;5.13;;;2.83;;
5493;SDS011;2769;49.864;8.656;2023-12-20T13:27:05;12.33;;;3.03;;
5493;SDS011;2769;49.864;8.656;2023-12-20T13:29:51;6.60;;;2.60;;
5493;SDS011;2769;49.864;8.656;2023-12-20T13:32:38;10.90;;;2.80;;
5493;SDS011;2769;49.864;8.656;2023-12-20T13:35:25;4.90;;;2.90;;
5493;SDS011;2769;49.864;8.656;2023-12-20T13:38:12;5.80;;;3.00;;
5493;SDS011;2769;49.864;8.656;2023-12-20T13:40:59;5.93;;;2.70;;
5493;SDS011;2769;49.864;8.656;2023-12-20T13:43:46;9.87;;;3.23;;
5493;SDS011;2769;49.864;8.656;2023-12-20T13:46:33;4.13;;;2.73;;
5493;SDS011;2769;49.864;8.656;2023-12-20T13:49:19;9.47;;;3.30;;
5493;SDS011;2769;49.864;8.656;2023-12-20T13:52:06;9.70;;;2.57;;
5493;SDS011;2769;49.864;8.656;2023-12-20T13:54:53;3.80;;;2.50;;
5493;SDS011;2769;49.864;8.656;2023-12-20T13:57:40;5.73;;;2.40;;
5493;SDS011;2769;49.864;8.656;2023-12-20T14:00:41;3.37;;;2.23;;
5493;SDS011;2769;49.864;8.656;2023-12-20T14:03:27;4.60;;;2.90;;
5493;SDS011;2769;49.864;8.656;2023-12-20T14:06:13;4.60;;;2.20;;
5493;SDS011;2769;49.864;8.656;2023-12-20T14:09:01;9.33;;;2.60;;
5493;SDS011;2769;49.864;8.656;2023-12-20T14:11:47;8.27;;;2.53;;
5493;SDS011;2769;49.864;8.656;2023-12-20T14:14:34;11.00;;;3.63;;
5493;SDS011;2769;49.864;8.656;2023-12-20T14:17:21;6.30;;;2.60;;
5493;SDS011;2769;49.864;8.656;2023-12-20T14:20:08;3.37;;;1.97;;
5493;SDS011;2769;49.864;8.656;2023-12-20T14:22:57;4.73;;;2.00;;
5493;SDS011;2769;49.864;8.656;2023-12-20T14:25:44;4.97;;;2.17;;
5493;SDS011;2769;49.864;8.656;2023-12-20T14:28:36;3.40;;;1.80;;
5493;SDS011;2769;49.864;8.656;2023-12-20T14:31:23;3.50;;;1.93;;
5493;SDS011;2769;49.864;8.656;2023-12-20T14:34:12;3.47;;;1.80;;
5493;SDS011;2769;49.864;8.656;2023-12-20T14:36:58;4.10;;;1.63;;
5493;SDS011;2769;49.864;8.656;2023-12-20T14:39:45;4.93;;;1.80;;
5493;SDS011;2769;49.864;8.656;2023-12-20T14:42:32;5.80;;;1.83;;
5493;SDS011;2769;49.864;8.656;2023-12-20T14:45:18;10.93;;;1.73;;
5493;SDS011;2769;49.864;8.656;2023-12-20T14:48:05;5.03;;;1.83;;
5493;SDS011;2769;49.864;8.656;2023-12-20T14:50:53;5.10;;;2.40;;
5493;SDS011;2769;49.864;8.656;2023-12-20T14:53:40;5.37;;;1.70;;
5493;SDS011;2769;49.864;8.656;2023-12-20T14:56:27;7.33;;;1.93;;
5493;SDS011;2769;49.864;8.656;2023-12-20T14:59:13;8.50;;;2.40;;
5493;SDS011;2769;49.864;8.656;2023-12-20T15:02:00;6.40;;;1.97;;
5493;SDS011;2769;49.864;8.656;2023-12-20T15:04:49;8.23;;;2.10;;
5493;SDS011;2769;49.864;8.656;2023-12-20T15:07:38;9.03;;;2.57;;
5493;SDS011;2769;49.864;8.656;2023-12-20T15:10:24;5.53;;;1.83;;
5493;SDS011;2769;49.864;8.656;2023-12-20T15:13:11;4.47;;;2.00;;
5493;SDS011;2769;49.864;8.656;2023-12-20T15:15:58;7.70;;;2.20;;
5493;SDS011;2769;49.864;8.656;2023-12-20T15:18:44;6.27;;;2.00;;
5493;SDS011;2769;49.864;8.656;2023-12-20T15:21:31;7.40;;;2.43;;
5493;SDS011;2769;49.864;8.656;2023-12-20T15:24:29;9.23;;;2.10;;
5493;SDS011;2769;49.864;8.656;2023-12-20T15:27:23;2.90;;;1.97;;
5493;SDS011;2769;49.864;8.656;2023-12-20T15:30:10;3.00;;;1.93;;
5493;SDS011;2769;49.864;8.656;2023-12-20T15:32:57;4.53;;;2.30;;
5493;SDS011;2769;49.864;8.656;2023-12-20T15:35:46;3.50;;;1.67;;
5493;SDS011;2769;49.864;8.656;2023-12-20T15:38:32;4.83;;;1.83;;
5493;SDS011;2769;49.864;8.656;2023-12-20T15:41:21;5.70;;;2.10;;
5493;SDS011;2769;49.864;8.656;2023-12-20T15:44:08;7.83;;;1.90;;
5493;SDS011;2769;49.864;8.656;2023-12-20T15:46:55;6.10;;;2.00;;
5493;SDS011;2769;49.864;8.656;2023-12-20T15:49:42;3.87;;;1.80;;
5493;SDS011;2769;49.864;8.656;2023-12-20T15:52:28;12.70;;;2.90;;
5493;SDS011;2769;49.864;8.656;2023-12-20T15:55:15;6.60;;;1.97;;
5493;SDS011;2769;49.864;8.656;2023-12-20T15:58:03;4.70;;;1.67;;
5493;SDS011;2769;49.864;8.656;2023-12-20T16:00:50;3.13;;;2.10;;
5493;SDS011;2769;49.864;8.656;2023-12-20T16:03:37;12.60;;;2.73;;
5493;SDS011;2769;49.864;8.656;2023-12-20T16:06:34;17.33;;;2.27;;
5493;SDS011;2769;49.864;8.656;2023-12-20T16:09:22;5.57;;;1.93;;
5493;SDS011;2769;49.864;8.656;2023-12-20T16:12:08;6.27;;;2.33;;
5493;SDS011;2769;49.864;8.656;2023-12-20T16:14:56;9.93;;;2.33;;
5493;SDS011;2769;49.864;8.656;2023-12-20T16:17:42;8.70;;;2.47;;
5493;SDS011;2769;49.864;8.656;2023-12-20T16:20:29;4.13;;;2.10;;
5493;SDS011;2769;49.864;8.656;2023-12-20T16:23:16;4.10;;;2.03;;
5493;SDS011;2769;49.864;8.656;2023-12-20T16:26:04;5.07;;;2.63;;
5493;SDS011;2769;49.864;8.656;2023-12-20T16:28:50;5.60;;;3.33;;
5493;SDS011;2769;49.864;8.656;2023-12-20T16:31:38;2.83;;;2.40;;
5493;SDS011;2769;49.864;8.656;2023-12-20T16:34:25;10.37;;;2.90;;
5493;SDS011;2769;49.864;8.656;2023-12-20T16:37:12;7.97;;;3.53;;
5493;SDS011;2769;49.864;8.656;2023-12-20T16:39:59;10.03;;;3.50;;
5493;SDS011;2769;49.864;8.656;2023-12-20T16:42:46;4.97;;;2.73;;
5493;SDS011;2769;49.864;8.656;2023-12-20T16:45:33;6.03;;;2.70;;
5493;SDS011;2769;49.864;8.656;2023-12-20T16:48:21;3.83;;;2.17;;
5493;SDS011;2769;49.864;8.656;2023-12-20T16:51:08;6.33;;;2.67;;
5493;SDS011;2769;49.864;8.656;2023-12-20T16:53:55;11.80;;;2.83;;
5493;SDS011;2769;49.864;8.656;2023-12-20T16:56:42;7.97;;;2.60;;
5493;SDS011;2769;49.864;8.656;2023-12-20T16:59:29;3.10;;;2.10;;
5493;SDS011;2769;49.864;8.656;2023-12-20T17:02:15;8.53;;;2.60;;
5493;SDS011;2769;49.864;8.656;2023-12-20T17:05:07;4.77;;;2.80;;
5493;SDS011;2769;49.864;8.656;2023-12-20T17:07:55;14.30;;;2.87;;
5493;SDS011;2769;49.864;8.656;2023-12-20T17:10:41;7.47;;;3.20;;
5493;SDS011;2769;49.864;8.656;2023-12-20T17:13:28;6.67;;;3.07;;
5493;SDS011;2769;49.864;8.656;2023-12-20T17:16:16;5.00;;;3.37;;
5493;SDS011;2769;49.864;8.656;2023-12-20T17:19:03;7.17;;;2.80;;
5493;SDS011;2769;49.864;8.656;2023-12-20T17:21:51;6.50;;;2.93;;